YFC71 WSSL-WSSL

Flight info

Callsign YFC71
Flight time 0h 30m
Altitude 10500
Route LATA/CCTS
Aircraft DA40/L-VGD/A

Departure

Time 2026-05-05 14:39
Airport Seletar Airport (WSSL)

Arrival

Time 2026-05-05 15:10
Airport Seletar Airport (WSSL)
Time Latitude Longitude Altitude Speed Heading
2026-05-05 14:24 1.41446 103.86384 49 ft 0 kts 149°
2026-05-05 14:28 1.41435 103.86390 49 ft 6 kts 150°
2026-05-05 14:28 1.41424 103.86403 49 ft 2 kts 87°
2026-05-05 14:28 1.41442 103.86420 49 ft 8 kts 34°
2026-05-05 14:29 1.41478 103.86454 49 ft 6 kts 36°
2026-05-05 14:29 1.41520 103.86481 49 ft 7 kts 33°
2026-05-05 14:29 1.41525 103.86485 49 ft 0 kts 32°
2026-05-05 14:34 1.41536 103.86491 49 ft 4 kts 33°
2026-05-05 14:34 1.41556 103.86505 49 ft 4 kts 33°
2026-05-05 14:34 1.41565 103.86521 49 ft 2 kts 111°
2026-05-05 14:34 1.41553 103.86542 49 ft 3 kts 123°
2026-05-05 14:35 1.41549 103.86547 49 ft 0 kts 125°
2026-05-05 14:36 1.41544 103.86554 49 ft 4 kts 123°
2026-05-05 14:36 1.41526 103.86582 50 ft 7 kts 124°
2026-05-05 14:36 1.41500 103.86617 50 ft 5 kts 148°
2026-05-05 14:36 1.41455 103.86608 50 ft 12 kts 212°
2026-05-05 14:37 1.41364 103.86540 49 ft 17 kts 218°
2026-05-05 14:37 1.41303 103.86508 49 ft 2 kts 123°
2026-05-05 14:37 1.41318 103.86521 49 ft 5 kts 26°
2026-05-05 14:37 1.41334 103.86529 49 ft 0 kts 33°
2026-05-05 14:38 1.41395 103.86569 49 ft 34 kts 34°
2026-05-05 14:38 1.41732 103.86789 71 ft 74 kts 31°
2026-05-05 14:39 1.42190 103.87060 238 ft 78 kts 27°
2026-05-05 14:39 1.42676 103.87334 437 ft 80 kts 31°
2026-05-05 14:39 1.43154 103.87609 650 ft 81 kts 14°
2026-05-05 14:39 1.43718 103.87472 815 ft 87 kts 315°
2026-05-05 14:40 1.43982 103.86972 1008 ft 91 kts 270°
2026-05-05 14:40 1.43684 103.86376 1033 ft 98 kts 223°
2026-05-05 14:40 1.43138 103.85975 1012 ft 97 kts 212°
2026-05-05 14:40 1.42580 103.85621 967 ft 94 kts 211°
2026-05-05 14:41 1.42050 103.85257 945 ft 92 kts 214°
2026-05-05 14:41 1.41524 103.84903 985 ft 90 kts 210°
2026-05-05 14:41 1.40960 103.84581 982 ft 95 kts 207°
2026-05-05 14:41 1.40395 103.84317 975 ft 82 kts 174°
2026-05-05 14:42 1.40003 103.84707 784 ft 82 kts 114°
2026-05-05 14:42 1.39723 103.85174 593 ft 80 kts 118°
2026-05-05 14:42 1.39870 103.85603 384 ft 74 kts 24°
2026-05-05 14:42 1.40305 103.85858 233 ft 75 kts 30°
2026-05-05 14:43 1.40754 103.86150 88 ft 76 kts 32°
2026-05-05 14:43 1.41145 103.86405 49 ft 57 kts 34°
2026-05-05 14:43 1.41542 103.86663 103 ft 77 kts 30°
2026-05-05 14:43 1.41985 103.86960 322 ft 75 kts 34°
2026-05-05 14:44 1.42433 103.87281 500 ft 80 kts 34°
2026-05-05 14:44 1.42939 103.87467 675 ft 85 kts 353°
2026-05-05 14:44 1.43360 103.87081 879 ft 84 kts 282°
2026-05-05 14:44 1.43056 103.86637 952 ft 99 kts 193°
2026-05-05 14:45 1.42832 103.86114 1335 ft 75 kts 243°
2026-05-05 14:45 1.42520 103.85637 1522 ft 85 kts 218°
2026-05-05 14:45 1.42027 103.85181 1489 ft 103 kts 230°
2026-05-05 14:45 1.41529 103.84681 1461 ft 102 kts 221°
2026-05-05 14:46 1.41011 103.84208 1413 ft 104 kts 220°
2026-05-05 14:46 1.40487 103.83749 1427 ft 97 kts 218°
2026-05-05 14:46 1.40091 103.83221 1405 ft 95 kts 243°
2026-05-05 14:46 1.39777 103.82636 1354 ft 97 kts 239°
2026-05-05 14:47 1.39514 103.82019 1532 ft 93 kts 256°
2026-05-05 14:47 1.39494 103.81420 1817 ft 87 kts 269°
2026-05-05 14:47 1.39456 103.80804 2009 ft 86 kts 257°
2026-05-05 14:47 1.39245 103.80240 2177 ft 91 kts 236°
2026-05-05 14:48 1.38873 103.79688 2303 ft 98 kts 230°
2026-05-05 14:48 1.38506 103.79463 2390 ft 98 kts 171°
2026-05-05 14:48 1.37796 103.79962 2453 ft 99 kts 120°
2026-05-05 14:48 1.37734 103.80596 2425 ft 90 kts 76°
2026-05-05 14:49 1.38021 103.81109 2452 ft 79 kts 60°
2026-05-05 14:49 1.38325 103.81578 2521 ft 84 kts 54°
2026-05-05 14:49 1.38564 103.81902 2580 ft 86 kts 54°
2026-05-05 14:49 1.38941 103.82339 2616 ft 86 kts 27°
2026-05-05 14:50 1.39516 103.82228 2561 ft 94 kts 308°
2026-05-05 14:50 1.39451 103.81665 2537 ft 92 kts 211°
2026-05-05 14:50 1.38847 103.81588 2577 ft 86 kts 179°
2026-05-05 14:50 1.38278 103.81626 2581 ft 82 kts 172°
2026-05-05 14:51 1.37700 103.81706 2580 ft 83 kts 172°
2026-05-05 14:51 1.37121 103.81810 2615 ft 89 kts 155°
2026-05-05 14:51 1.36686 103.82266 2642 ft 95 kts 104°
2026-05-05 14:51 1.36984 103.82755 2739 ft 92 kts 358°
2026-05-05 14:52 1.37417 103.82332 2781 ft 95 kts 294°
2026-05-05 14:52 1.37699 103.81687 2757 ft 103 kts 289°
2026-05-05 14:52 1.37930 103.80989 2756 ft 112 kts 284°
2026-05-05 14:52 1.38146 103.80212 2765 ft 122 kts 284°
2026-05-05 14:53 1.38362 103.79402 2679 ft 120 kts 284°
2026-05-05 14:53 1.38684 103.78620 2637 ft 117 kts 302°
2026-05-05 14:53 1.38698 103.77873 2624 ft 109 kts 231°
2026-05-05 14:53 1.38031 103.77664 2641 ft 106 kts 165°
2026-05-05 14:54 1.37476 103.78127 2612 ft 102 kts 123°
2026-05-05 14:54 1.37131 103.78690 2621 ft 97 kts 118°
2026-05-05 14:54 1.36839 103.79317 2623 ft 97 kts 117°
2026-05-05 14:54 1.36602 103.79938 2618 ft 93 kts 97°
2026-05-05 14:55 1.36944 103.80444 2633 ft 98 kts
2026-05-05 14:55 1.37451 103.80073 2594 ft 99 kts 283°
2026-05-05 14:55 1.37586 103.79408 2620 ft 95 kts 275°
2026-05-05 14:55 1.37659 103.78746 2637 ft 96 kts 274°
2026-05-05 14:56 1.37730 103.78081 2647 ft 94 kts 271°
2026-05-05 14:56 1.37831 103.77429 2580 ft 99 kts 269°
2026-05-05 14:56 1.37376 103.77030 2603 ft 100 kts 175°
2026-05-05 14:56 1.37018 103.77526 2575 ft 98 kts 93°
2026-05-05 14:57 1.37005 103.78181 2599 ft 96 kts 91°
2026-05-05 14:57 1.37020 103.78817 2593 ft 91 kts 88°
2026-05-05 14:57 1.37074 103.79464 2556 ft 98 kts 84°
2026-05-05 14:57 1.37167 103.80108 2571 ft 94 kts 79°
2026-05-05 14:58 1.37370 103.80727 2585 ft 91 kts 45°
2026-05-05 14:58 1.37939 103.80691 2557 ft 94 kts 309°
2026-05-05 14:58 1.37983 103.80093 2607 ft 96 kts 244°
2026-05-05 14:58 1.37656 103.79512 2592 ft 94 kts 233°
2026-05-05 14:59 1.37315 103.78975 2485 ft 94 kts 237°
2026-05-05 14:59 1.36947 103.78519 2486 ft 77 kts 229°
2026-05-05 14:59 1.36545 103.78187 2476 ft 86 kts 171°
2026-05-05 14:59 1.36020 103.78567 2497 ft 104 kts 112°
2026-05-05 15:00 1.36264 103.79213 2611 ft 108 kts 72°
2026-05-05 15:00 1.36461 103.79673 2636 ft 111 kts 68°
2026-05-05 15:00 1.36893 103.80474 2606 ft 96 kts 54°
2026-05-05 15:00 1.37229 103.80972 2589 ft 85 kts 54°
2026-05-05 15:01 1.37618 103.81464 2625 ft 96 kts 52°
2026-05-05 15:01 1.38158 103.81776 2644 ft 97 kts 342°
2026-05-05 15:01 1.38458 103.81219 2630 ft 100 kts 259°
2026-05-05 15:01 1.38188 103.80587 2653 ft 96 kts 238°
2026-05-05 15:02 1.37860 103.80009 2627 ft 96 kts 238°
2026-05-05 15:02 1.37482 103.79435 2608 ft 102 kts 225°
2026-05-05 15:02 1.37089 103.78868 2620 ft 99 kts 234°
2026-05-05 15:02 1.36742 103.78284 2630 ft 96 kts 250°
2026-05-05 15:03 1.36917 103.77680 2658 ft 100 kts 317°
2026-05-05 15:03 1.37500 103.77549 2672 ft 85 kts 26°
2026-05-05 15:03 1.37806 103.77996 2659 ft 80 kts 89°
2026-05-05 15:03 1.37855 103.78564 2581 ft 87 kts 86°
2026-05-05 15:04 1.37927 103.79157 2593 ft 89 kts 85°
2026-05-05 15:04 1.37974 103.79814 2669 ft 100 kts 85°
2026-05-05 15:04 1.38067 103.80540 2642 ft 106 kts 84°
2026-05-05 15:04 1.38174 103.81235 2635 ft 98 kts 84°
2026-05-05 15:05 1.37374 103.81792 2608 ft 95 kts 199°
2026-05-05 15:05 1.36759 103.81580 2491 ft 89 kts 196°
2026-05-05 15:05 1.36110 103.81344 2407 ft 112 kts 199°
2026-05-05 15:06 1.35304 103.81083 2224 ft 135 kts 194°
2026-05-05 15:06 1.34548 103.81397 1891 ft 119 kts 131°
2026-05-05 15:06 1.34719 103.82091 1744 ft 120 kts 51°
2026-05-05 15:06 1.35000 103.82604 1880 ft 74 kts 38°
2026-05-05 15:07 1.35702 103.82764 1407 ft 123 kts
2026-05-05 15:07 1.36332 103.83123 1282 ft 99 kts 52°
2026-05-05 15:07 1.36716 103.83588 1379 ft 85 kts 46°
2026-05-05 15:07 1.37213 103.83841 1314 ft 76 kts 29°
2026-05-05 15:08 1.37715 103.84093 1061 ft 83 kts 34°
2026-05-05 15:08 1.38224 103.84439 918 ft 100 kts 37°
2026-05-05 15:08 1.38763 103.84829 818 ft 79 kts 38°
2026-05-05 15:08 1.39165 103.85151 597 ft 90 kts 34°
2026-05-05 15:09 1.39713 103.85471 409 ft 83 kts 33°
2026-05-05 15:09 1.40148 103.85758 283 ft 72 kts 33°
2026-05-05 15:09 1.40561 103.86034 166 ft 75 kts 32°
2026-05-05 15:09 1.41022 103.86332 57 ft 68 kts 36°
2026-05-05 15:10 1.41331 103.86534 49 ft 32 kts 34°
2026-05-05 15:10 1.41449 103.86611 50 ft 10 kts 26°
2026-05-05 15:10 1.41502 103.86614 50 ft 2 kts 314°
2026-05-05 15:10 1.41534 103.86570 49 ft 9 kts 304°
2026-05-05 15:11 1.41564 103.86524 49 ft 5 kts 294°
2026-05-05 15:11 1.41572 103.86491 49 ft 5 kts 239°
2026-05-05 15:11 1.41524 103.86459 49 ft 10 kts 213°
2026-05-05 15:11 1.41482 103.86431 49 ft 4 kts 215°
2026-05-05 15:12 1.41477 103.86415 49 ft 5 kts 278°
2026-05-05 15:12 1.41460 103.86374 49 ft 5 kts 242°
2026-05-05 15:12 1.41447 103.86367 49 ft 3 kts 155°
2026-05-05 15:12 1.41442 103.86370 49 ft 0 kts 147°
2026-05-05 15:13 1.41439 103.86372 49 ft 0 kts 149°